createdAt,value
2017-05-03T17:57:03.159Z,12.10
2017-05-03T17:59:30.992Z,12.10
2017-05-03T18:01:58.807Z,12.20
2017-05-03T18:04:26.823Z,12.20
2017-05-03T18:06:55.279Z,12.30
2017-05-03T18:12:00.040Z,12.10
2017-05-03T18:14:28.443Z,12.00
2017-05-03T18:16:57.385Z,11.90
2017-05-03T18:19:27.396Z,11.80
2017-05-03T18:21:56.688Z,11.70
2017-05-03T18:24:25.046Z,11.60
2017-05-03T18:26:54.466Z,11.40
2017-05-03T18:29:23.041Z,11.40
2017-05-03T18:31:52.619Z,11.30
2017-05-03T18:34:21.460Z,11.30
2017-05-03T18:36:50.913Z,11.20
2017-05-03T18:39:19.120Z,11.10
2017-05-03T18:41:48.108Z,11.00
2017-05-03T18:44:16.890Z,10.90
2017-05-03T18:46:45.264Z,10.90
2017-05-03T18:49:13.618Z,10.90
2017-05-03T18:51:43.248Z,10.80
2017-05-03T18:54:12.190Z,11.10
2017-05-03T18:56:41.452Z,10.90
2017-05-03T18:59:10.941Z,10.70
2017-05-03T19:01:38.839Z,10.60
2017-05-03T19:04:07.709Z,10.50
2017-05-03T19:06:36.150Z,10.40
2017-05-03T19:09:05.331Z,10.40
2017-05-03T19:11:35.014Z,10.40
2017-05-03T19:14:02.820Z,10.40
2017-05-03T19:16:30.454Z,10.40
2017-05-03T19:18:58.060Z,10.40
2017-05-03T19:21:26.209Z,10.40
2017-05-03T19:23:54.189Z,10.30
2017-05-03T19:26:21.720Z,10.30
2017-05-03T19:28:50.108Z,10.20
2017-05-03T19:31:17.688Z,10.20
2017-05-03T19:33:46.262Z,10.10
2017-05-03T19:36:14.655Z,10.00
2017-05-03T19:38:42.208Z,10.10
2017-05-03T19:41:10.344Z,10.00
2017-05-03T19:43:38.046Z,10.10
2017-05-03T19:46:06.926Z,10.00
2017-05-03T19:48:35.314Z,9.90
2017-05-03T19:51:03.933Z,9.80
2017-05-03T19:53:31.414Z,10.20
2017-05-03T19:55:58.974Z,10.40
2017-05-03T20:02:59.875Z,16.00
2017-05-03T20:05:27.340Z,14.00
2017-05-03T20:07:54.757Z,13.20
2017-05-03T20:10:22.174Z,12.70
2017-05-03T20:12:49.695Z,12.50
2017-05-03T20:15:17.939Z,12.20
2017-05-03T20:17:46.031Z,12.10
2017-05-03T20:20:13.647Z,12.00
2017-05-03T20:22:41.170Z,12.00
2017-05-03T20:25:08.924Z,11.80
2017-05-03T20:27:36.421Z,11.60
2017-05-03T20:30:04.024Z,11.70
2017-05-03T20:32:31.613Z,11.60
2017-05-03T20:34:59.210Z,11.50
2017-05-03T20:37:26.646Z,11.70
2017-05-03T20:39:54.045Z,11.30
2017-05-03T20:42:21.501Z,11.20
2017-05-03T20:44:48.964Z,11.30
2017-05-03T20:47:16.379Z,11.40
2017-05-03T20:49:44.890Z,11.20
2017-05-03T20:52:12.417Z,11.10
2017-05-03T20:54:40.629Z,10.90
2017-05-03T20:57:09.049Z,10.90
2017-05-03T20:59:36.783Z,10.90
2017-05-03T21:02:04.239Z,11.20
2017-05-03T21:04:32.189Z,11.00
2017-05-03T21:07:04.722Z,10.90
2017-05-03T21:09:32.148Z,10.80
2017-05-03T21:11:59.749Z,10.70
2017-05-03T21:14:27.918Z,10.60
2017-05-03T21:16:56.091Z,10.70
2017-05-03T21:19:24.234Z,10.90
2017-05-03T21:21:52.506Z,10.80
2017-05-03T21:24:20.923Z,10.90
2017-05-03T21:26:48.381Z,10.90
2017-05-03T21:29:15.919Z,11.10
2017-05-03T21:31:44.244Z,11.10
2017-05-03T21:34:12.263Z,10.90
2017-05-03T21:36:40.560Z,10.70
2017-05-03T21:39:08.804Z,10.70
2017-05-03T21:41:36.368Z,10.90
2017-05-03T21:44:03.833Z,10.90
2017-05-03T21:46:31.684Z,10.80
2017-05-03T21:48:59.742Z,10.80
2017-05-03T21:51:28.063Z,10.90
2017-05-03T21:53:56.233Z,10.50
2017-05-03T21:56:24.209Z,10.40
2017-05-03T21:58:52.413Z,10.40
2017-05-03T22:01:19.913Z,10.40
2017-05-03T22:03:48.915Z,10.30
2017-05-03T22:06:16.342Z,10.30
2017-05-03T22:08:43.765Z,10.10
2017-05-03T22:11:11.915Z,10.20
2017-05-03T22:13:40.088Z,10.00
2017-05-03T22:16:08.269Z,10.10
2017-05-03T22:18:35.769Z,10.20
2017-05-03T22:21:03.201Z,10.30
2017-05-03T22:23:30.680Z,10.40
2017-05-03T22:25:59.191Z,10.30
2017-05-03T22:28:26.599Z,10.30
2017-05-03T22:30:53.992Z,10.20
2017-05-03T22:33:21.437Z,9.90
2017-05-03T22:35:48.845Z,9.80
2017-05-03T22:38:17.227Z,9.80
2017-05-03T22:40:44.886Z,9.70
2017-05-03T22:43:13.055Z,9.80
2017-05-03T22:45:41.181Z,9.70
2017-05-03T22:48:08.593Z,9.60
2017-05-03T22:50:37.745Z,9.60
2017-05-03T22:53:05.212Z,9.60
2017-05-03T22:55:33.183Z,9.60
2017-05-03T22:58:00.594Z,9.60
2017-05-03T23:00:28.038Z,9.60
2017-05-03T23:03:02.514Z,9.70
2017-05-03T23:05:29.950Z,9.60
2017-05-03T23:07:57.609Z,9.50
2017-05-03T23:10:24.987Z,9.50
2017-05-03T23:12:52.767Z,9.50
2017-05-03T23:15:20.910Z,9.50
2017-05-03T23:17:48.531Z,9.50
2017-05-03T23:20:15.913Z,9.50
2017-05-03T23:22:43.290Z,9.50
2017-05-03T23:25:10.938Z,9.70
2017-05-03T23:27:38.338Z,9.60
2017-05-03T23:30:05.761Z,9.40
2017-05-03T23:32:33.455Z,9.50
2017-05-03T23:35:01.639Z,9.30
2017-05-03T23:37:29.035Z,9.20
2017-05-03T23:39:56.413Z,9.10
2017-05-03T23:42:23.814Z,9.10
2017-05-03T23:44:52.525Z,9.10
2017-05-03T23:47:19.902Z,9.10
2017-05-03T23:49:47.353Z,9.10
2017-05-03T23:52:14.727Z,9.00
2017-05-03T23:54:42.273Z,9.00
2017-05-03T23:57:09.677Z,9.00
2017-05-03T23:59:37.596Z,9.00
